Time;durP1;ratioP1;P1;durP2;ratioP2;P2;SDS_P1;SDS_P2;PMS_P1;PMS_P2;Temp;Humidity;BMP_temperature;BMP_pressure;BME280_temperature;BME280_humidity;BME280_pressure;Samples;Min_cycle;Max_cycle;Signal;HPM_P1;HPM_P2
2023/08/09 00:00:47;;;;;;;3.83;1.50;;;10.00;93.80;;;;;;5037566;28;20045;-69
2023/08/09 00:03:12;;;;;;;4.03;1.20;;;10.00;94.00;;;;;;5041252;28;20148;-69
2023/08/09 00:05:38;;;;;;;3.53;1.40;;;9.90;94.50;;;;;;5053212;28;20287;-69
2023/08/09 00:08:04;;;;;;;3.60;1.23;;;9.90;95.30;;;;;;5063155;28;20047;-69
2023/08/09 00:10:30;;;;;;;4.07;1.43;;;9.90;95.00;;;;;;5051831;28;20071;-69
2023/08/09 00:12:55;;;;;;;2.07;1.20;;;9.90;94.90;;;;;;5068061;28;20071;-69
2023/08/09 00:15:21;;;;;;;3.27;1.27;;;9.90;95.10;;;;;;5068741;28;20040;-69
2023/08/09 00:17:47;;;;;;;8.13;1.40;;;9.90;94.70;;;;;;5041660;28;20032;-69
2023/08/09 00:20:13;;;;;;;4.20;1.10;;;9.80;94.60;;;;;;5051111;28;20040;-69
2023/08/09 00:22:41;;;;;;;3.37;1.40;;;9.80;94.50;;;;;;5047574;28;20078;-69
2023/08/09 00:25:09;;;;;;;3.33;1.25;;;9.80;94.60;;;;;;5043855;28;20036;-69
2023/08/09 00:27:35;;;;;;;4.05;1.10;;;9.80;94.70;;;;;;5058246;28;20032;-69
2023/08/09 00:30:00;;;;;;;5.90;1.17;;;9.80;95.10;;;;;;5056175;28;20052;-69
2023/08/09 00:32:26;;;;;;;4.73;1.40;;;9.80;95.00;;;;;;5064282;28;20079;-69
2023/08/09 00:34:52;;;;;;;3.43;1.43;;;9.80;95.40;;;;;;5062069;28;20479;-69
2023/08/09 00:37:18;;;;;;;5.03;1.23;;;9.80;95.50;;;;;;5061278;28;20048;-69
2023/08/09 00:39:45;;;;;;;7.15;1.23;;;9.80;95.10;;;;;;5043409;28;20567;-69
2023/08/09 00:42:11;;;;;;;4.13;1.60;;;9.80;94.90;;;;;;5067060;28;20040;-69
2023/08/09 00:44:36;;;;;;;5.67;1.30;;;9.70;94.70;;;;;;5043629;28;20534;-69
2023/08/09 00:47:02;;;;;;;4.60;1.53;;;9.70;94.70;;;;;;5042563;28;20036;-70
2023/08/09 00:49:28;;;;;;;9.53;2.03;;;9.70;95.60;;;;;;5048118;28;20036;-69
2023/08/09 00:51:54;;;;;;;4.73;1.40;;;9.70;95.50;;;;;;5041693;28;20445;-69
2023/08/09 00:54:20;;;;;;;4.43;1.20;;;9.70;95.60;;;;;;5042049;28;20056;-69
2023/08/09 00:56:46;;;;;;;5.00;1.33;;;9.70;95.30;;;;;;5045128;28;20040;-69
2023/08/09 00:59:12;;;;;;;3.43;1.20;;;9.70;95.60;;;;;;5055784;28;20048;-69
2023/08/09 01:01:39;;;;;;;4.95;1.10;;;9.70;95.40;;;;;;5044195;28;20056;-69
2023/08/09 01:04:05;;;;;;;4.88;1.25;;;9.60;95.40;;;;;;5061606;28;20043;-69
2023/08/09 01:06:40;;;;;;;5.72;1.33;;;9.60;95.30;;;;;;5059708;28;20132;-69
2023/08/09 01:09:17;;;;;;;3.88;1.30;;;9.60;95.50;;;;;;5053072;28;20072;-69
2023/08/09 01:12:01;;;;;;;6.90;1.33;;;9.60;95.20;;;;;;5058775;28;20041;-69
2023/08/09 01:14:29;;;;;;;3.30;1.00;;;9.50;94.90;;;;;;5062424;28;20513;-69
2023/08/09 01:16:56;;;;;;;6.18;1.10;;;9.50;94.90;;;;;;5055164;28;20058;-69
2023/08/09 01:19:34;;;;;;;4.38;1.30;;;9.50;94.80;;;;;;5045176;28;20040;-69
2023/08/09 01:22:06;;;;;;;4.57;1.40;;;9.40;94.70;;;;;;5044570;28;20044;-69
2023/08/09 01:24:33;;;;;;;3.20;1.00;;;9.30;94.90;;;;;;5050388;28;20072;-69
2023/08/09 01:26:59;;;;;;;3.08;1.00;;;9.30;94.80;;;;;;5060163;28;20515;-69
2023/08/09 01:29:25;;;;;;;5.97;1.17;;;9.30;95.00;;;;;;5033392;28;20423;-70
2023/08/09 01:31:51;;;;;;;2.97;1.20;;;9.30;94.90;;;;;;5060868;28;20068;-69
2023/08/09 01:34:18;;;;;;;3.95;1.20;;;9.20;95.00;;;;;;5039924;28;20049;-69
2023/08/09 01:36:50;;;;;;;4.85;1.40;;;9.20;95.10;;;;;;5049712;28;20515;-69
2023/08/09 01:39:22;;;;;;;3.47;1.20;;;9.20;95.00;;;;;;5051658;28;20128;-69
2023/08/09 01:41:49;;;;;;;2.90;1.50;;;9.30;95.20;;;;;;5037042;28;20041;-69
2023/08/09 01:44:16;;;;;;;5.35;1.38;;;9.30;95.20;;;;;;5059658;28;20086;-69
2023/08/09 01:46:43;;;;;;;2.60;1.30;;;9.30;95.20;;;;;;5062092;28;20568;-69
2023/08/09 01:49:11;;;;;;;3.63;1.20;;;9.20;95.20;;;;;;5047330;28;20550;-69
2023/08/09 01:51:38;;;;;;;3.08;1.52;;;9.20;95.30;;;;;;5044028;28;20048;-69
2023/08/09 01:54:04;;;;;;;3.10;1.50;;;9.20;95.20;;;;;;5063163;28;20121;-69
2023/08/09 01:56:30;;;;;;;3.72;1.52;;;9.20;95.30;;;;;;5055296;28;20060;-69
2023/08/09 01:58:56;;;;;;;4.13;1.37;;;9.20;95.10;;;;;;5045700;28;20045;-69
2023/08/09 02:01:23;;;;;;;4.30;1.73;;;9.10;95.20;;;;;;5064648;28;20404;-69
2023/08/09 02:03:49;;;;;;;4.40;1.88;;;9.10;95.20;;;;;;5067050;28;20392;-69
2023/08/09 02:06:15;;;;;;;2.20;1.30;;;9.10;95.50;;;;;;5064260;28;20032;-69
2023/08/09 02:08:44;;;;;;;3.00;1.50;;;9.10;95.50;;;;;;5066621;28;20032;-69
2023/08/09 02:11:10;;;;;;;5.40;1.65;;;9.10;95.40;;;;;;5064481;28;20036;-69
2023/08/09 02:13:37;;;;;;;2.93;1.87;;;9.10;95.60;;;;;;5064731;28;20051;-69
2023/08/09 02:16:05;;;;;;;4.03;1.75;;;9.10;95.80;;;;;;5060081;28;20033;-69
2023/08/09 02:18:31;;;;;;;2.55;1.73;;;9.00;95.70;;;;;;5038670;28;20053;-69
2023/08/09 02:20:58;;;;;;;5.57;1.70;;;9.00;95.60;;;;;;5059053;28;20047;-69
2023/08/09 02:23:24;;;;;;;5.55;1.48;;;8.90;95.60;;;;;;5058448;28;20068;-69
2023/08/09 02:25:53;;;;;;;4.20;1.50;;;8.90;95.70;;;;;;5059971;28;20165;-69
2023/08/09 02:28:18;;;;;;;4.88;1.60;;;8.90;95.70;;;;;;5039976;28;20032;-69
2023/08/09 02:30:45;;;;;;;5.47;1.87;;;8.90;95.70;;;;;;5056442;28;21177;-69
2023/08/09 02:33:11;;;;;;;8.63;1.92;;;8.80;95.80;;;;;;5045756;28;20042;-69
2023/08/09 02:35:58;;;;;;;2.60;1.23;;;8.80;95.80;;;;;;5058301;28;20119;-69
2023/08/09 02:38:26;;;;;;;3.80;1.23;;;8.80;96.00;;;;;;5047813;28;20673;-69
2023/08/09 02:40:52;;;;;;;3.88;1.50;;;8.80;96.10;;;;;;5054681;28;20075;-69
2023/08/09 02:43:19;;;;;;;4.30;1.30;;;8.70;96.00;;;;;;5062389;28;21030;-69
2023/08/09 02:45:45;;;;;;;3.92;1.50;;;8.70;96.00;;;;;;5047392;28;20486;-70
2023/08/09 02:48:12;;;;;;;4.18;1.23;;;8.70;96.10;;;;;;5052241;28;20079;-70
2023/08/09 02:50:39;;;;;;;5.63;1.73;;;8.60;96.10;;;;;;5051477;28;20098;-70
2023/08/09 02:53:05;;;;;;;4.82;1.65;;;8.70;96.30;;;;;;5057574;28;20443;-70
2023/08/09 02:55:32;;;;;;;3.30;1.50;;;8.60;96.20;;;;;;5061905;28;20405;-70
2023/08/09 02:58:00;;;;;;;4.50;1.40;;;8.60;96.30;;;;;;5045979;28;20603;-70
2023/08/09 03:00:26;;;;;;;6.20;1.70;;;8.60;96.40;;;;;;5070265;28;20040;-70
2023/08/09 03:02:52;;;;;;;4.93;1.63;;;8.60;96.60;;;;;;5061647;28;20047;-70
2023/08/09 03:05:18;;;;;;;7.03;1.30;;;8.60;96.70;;;;;;5049230;28;20036;-70
2023/08/09 03:07:43;;;;;;;2.63;1.40;;;8.60;96.70;;;;;;5063183;28;20048;-70
2023/08/09 03:10:10;;;;;;;4.23;1.63;;;8.60;96.80;;;;;;5068390;28;20127;-70
2023/08/09 03:12:36;;;;;;;3.30;1.30;;;8.60;96.70;;;;;;5048179;28;20070;-70
2023/08/09 03:15:04;;;;;;;2.65;1.33;;;8.60;96.70;;;;;;5065968;28;20044;-70
2023/08/09 03:17:30;;;;;;;4.38;1.77;;;8.60;96.80;;;;;;5041203;28;20044;-70
2023/08/09 03:19:56;;;;;;;2.20;1.20;;;8.60;96.70;;;;;;5053137;28;20044;-70
2023/08/09 03:22:23;;;;;;;2.73;1.40;;;8.50;96.70;;;;;;5062077;28;20039;-70
2023/08/09 03:24:49;;;;;;;3.45;1.13;;;8.50;96.80;;;;;;5047757;28;20043;-70
2023/08/09 03:27:15;;;;;;;3.47;1.27;;;8.50;96.60;;;;;;5040978;28;20033;-70
2023/08/09 03:29:41;;;;;;;4.10;1.25;;;8.50;96.70;;;;;;5061755;28;20033;-70
2023/08/09 03:32:06;;;;;;;3.47;1.43;;;8.40;96.70;;;;;;5040335;28;20067;-70
2023/08/09 03:34:32;;;;;;;3.17;1.07;;;8.40;96.70;;;;;;5059685;28;20098;-70
2023/08/09 03:36:58;;;;;;;3.63;1.63;;;8.50;96.80;;;;;;5067055;28;20063;-70
2023/08/09 03:39:24;;;;;;;4.00;1.43;;;8.40;96.80;;;;;;5050902;28;20037;-70
2023/08/09 03:41:50;;;;;;;3.30;1.30;;;8.40;96.90;;;;;;5058554;28;20542;-70
2023/08/09 03:44:15;;;;;;;2.73;1.40;;;8.40;96.90;;;;;;5058665;28;20287;-70
2023/08/09 03:46:42;;;;;;;3.17;1.10;;;8.40;97.00;;;;;;5066726;28;20244;-70
2023/08/09 03:49:07;;;;;;;4.13;1.40;;;8.40;96.90;;;;;;5068411;28;20541;-70
2023/08/09 03:51:33;;;;;;;3.63;1.40;;;8.40;97.00;;;;;;5068002;28;20048;-70
2023/08/09 03:54:00;;;;;;;3.53;1.50;;;8.40;97.00;;;;;;5063155;28;20036;-70
2023/08/09 03:56:26;;;;;;;2.50;1.23;;;8.40;96.90;;;;;;5050313;28;20511;-70
2023/08/09 03:58:52;;;;;;;2.63;1.33;;;8.40;97.00;;;;;;5048572;28;20040;-70
2023/08/09 04:01:18;;;;;;;6.67;1.80;;;8.30;96.90;;;;;;5057023;28;20051;-70
2023/08/09 04:03:44;;;;;;;4.85;1.60;;;8.30;97.10;;;;;;5044844;28;20037;-70
2023/08/09 04:06:11;;;;;;;6.47;1.40;;;8.40;97.10;;;;;;5065877;28;20052;-70
2023/08/09 04:08:37;;;;;;;4.00;1.45;;;8.30;97.20;;;;;;5046603;28;20125;-70
2023/08/09 04:11:07;;;;;;;3.17;0.93;;;8.40;97.30;;;;;;5065195;28;20127;-71
2023/08/09 04:13:33;;;;;;;4.18;1.27;;;8.40;97.50;;;;;;5051130;28;20453;-70
2023/08/09 04:15:59;;;;;;;2.97;1.10;;;8.40;97.70;;;;;;5037388;28;20037;-70
2023/08/09 04:18:25;;;;;;;5.80;1.65;;;8.50;97.60;;;;;;5053123;28;20075;-70
2023/08/09 04:20:50;;;;;;;2.55;1.30;;;8.50;97.50;;;;;;5063114;28;20081;-70
2023/08/09 04:23:18;;;;;;;4.00;1.43;;;8.50;97.40;;;;;;5058858;28;20047;-70
2023/08/09 04:25:44;;;;;;;6.22;1.30;;;8.50;97.40;;;;;;5045813;28;20047;-70
2023/08/09 04:28:10;;;;;;;3.50;1.20;;;8.50;97.30;;;;;;5051304;28;20041;-70
2023/08/09 04:30:36;;;;;;;6.35;1.48;;;8.50;97.30;;;;;;5053516;28;20084;-70
2023/08/09 04:33:06;;;;;;;8.10;1.60;;;8.50;97.40;;;;;;5063233;28;20084;-70
2023/08/09 04:35:33;;;;;;;4.18;1.30;;;8.50;97.40;;;;;;5040383;28;20067;-70
2023/08/09 04:37:59;;;;;;;2.78;1.05;;;8.50;97.40;;;;;;5050993;28;20090;-70
2023/08/09 04:40:25;;;;;;;4.38;1.60;;;8.60;97.60;;;;;;5052988;28;20044;-70
2023/08/09 04:42:51;;;;;;;3.43;1.37;;;8.60;97.70;;;;;;5052269;28;20028;-70
2023/08/09 04:45:18;;;;;;;4.07;1.30;;;8.70;97.70;;;;;;5058763;28;20040;-70
2023/08/09 04:47:43;;;;;;;3.83;1.42;;;8.80;97.70;;;;;;5049742;28;20413;-70
2023/08/09 04:50:10;;;;;;;3.13;1.10;;;8.80;97.80;;;;;;5052976;28;20052;-70
2023/08/09 04:52:37;;;;;;;3.45;1.10;;;8.90;97.60;;;;;;5035788;28;20040;-70
2023/08/09 04:55:03;;;;;;;5.90;0.90;;;9.00;97.70;;;;;;5038040;28;20036;-70
2023/08/09 04:57:31;;;;;;;5.97;1.42;;;9.00;97.70;;;;;;5035946;28;20440;-70
2023/08/09 04:59:57;;;;;;;6.90;1.40;;;9.10;97.90;;;;;;5039411;28;20435;-70
2023/08/09 05:02:23;;;;;;;3.42;1.20;;;9.20;97.80;;;;;;5060113;28;20025;-70
2023/08/09 05:04:48;;;;;;;5.70;1.30;;;9.30;98.10;;;;;;5058897;28;20036;-70
2023/08/09 05:07:14;;;;;;;7.73;1.33;;;9.50;98.80;;;;;;5054244;28;20041;-70
2023/08/09 05:09:40;;;;;;;4.23;1.40;;;9.70;99.10;;;;;;5049280;28;20106;-70
2023/08/09 05:12:06;;;;;;;3.77;1.27;;;9.80;98.90;;;;;;5039709;28;20078;-70
2023/08/09 05:14:32;;;;;;;2.87;1.30;;;10.00;99.00;;;;;;5064849;28;20040;-70
2023/08/09 05:16:58;;;;;;;3.10;1.10;;;10.10;98.80;;;;;;5057124;28;20297;-70
2023/08/09 05:19:24;;;;;;;5.70;1.10;;;10.30;98.70;;;;;;5056394;28;20119;-70
2023/08/09 05:21:50;;;;;;;4.33;1.30;;;10.40;98.70;;;;;;5055825;28;20124;-70
2023/08/09 05:24:16;;;;;;;3.00;1.10;;;10.50;98.50;;;;;;5050352;28;20281;-70
2023/08/09 05:26:42;;;;;;;4.77;1.23;;;10.80;98.80;;;;;;5050492;28;20051;-70
2023/08/09 05:29:07;;;;;;;4.53;1.30;;;11.30;98.90;;;;;;5034269;28;20063;-70
2023/08/09 05:31:33;;;;;;;3.87;1.63;;;11.60;97.90;;;;;;5035945;28;20088;-70
2023/08/09 05:33:59;;;;;;;7.27;1.37;;;11.70;97.50;;;;;;5057438;28;20067;-70
2023/08/09 05:36:25;;;;;;;6.67;1.40;;;11.80;97.20;;;;;;5061959;28;20451;-71
2023/08/09 05:38:50;;;;;;;3.87;1.40;;;11.90;97.00;;;;;;5054511;28;20044;-71
2023/08/09 05:41:16;;;;;;;4.70;2.13;;;11.90;97.10;;;;;;5054893;28;20040;-70
2023/08/09 05:43:42;;;;;;;4.13;1.30;;;12.00;96.90;;;;;;5060477;28;20075;-70
2023/08/09 05:46:08;;;;;;;3.90;1.63;;;12.10;97.00;;;;;;5060298;28;20039;-70
2023/08/09 05:48:34;;;;;;;3.60;1.20;;;12.20;97.00;;;;;;5065264;28;20079;-70
2023/08/09 05:50:59;;;;;;;4.43;1.10;;;12.30;97.00;;;;;;5036677;28;20053;-71
2023/08/09 05:53:25;;;;;;;3.87;1.00;;;12.50;97.00;;;;;;5053894;28;20106;-71
2023/08/09 05:55:51;;;;;;;3.30;0.90;;;12.60;97.10;;;;;;5049886;28;20048;-71
2023/08/09 05:58:17;;;;;;;3.03;0.90;;;12.70;97.10;;;;;;5051695;28;20488;-71
2023/08/09 06:00:43;;;;;;;4.07;0.80;;;12.80;97.10;;;;;;5065227;28;20571;-71
2023/08/09 06:03:09;;;;;;;2.87;0.80;;;13.00;97.00;;;;;;5059027;28;20033;-71
2023/08/09 06:05:34;;;;;;;4.33;1.27;;;13.10;97.00;;;;;;5047878;28;20496;-71
2023/08/09 06:08:00;;;;;;;5.93;1.30;;;13.20;97.30;;;;;;5045377;28;20424;-71
2023/08/09 06:10:26;;;;;;;2.73;0.90;;;13.40;97.20;;;;;;5045094;28;20044;-71
2023/08/09 06:12:53;;;;;;;7.57;1.87;;;13.50;96.90;;;;;;5048764;28;20107;-71
2023/08/09 06:15:19;;;;;;;4.83;1.07;;;13.70;97.10;;;;;;5068033;28;20044;-71
2023/08/09 06:17:46;;;;;;;4.07;0.87;;;13.90;97.20;;;;;;5055701;28;20287;-71
2023/08/09 06:20:14;;;;;;;3.33;1.20;;;14.40;96.60;;;;;;5051728;28;20869;-71
2023/08/09 06:22:41;;;;;;;3.70;1.23;;;15.20;96.10;;;;;;5053266;28;20303;-71
2023/08/09 06:25:08;;;;;;;3.73;0.80;;;16.20;93.50;;;;;;5045660;28;20370;-71
2023/08/09 06:27:34;;;;;;;5.63;1.00;;;17.20;89.70;;;;;;5066763;28;20703;-71
2023/08/09 06:30:00;;;;;;;2.60;0.90;;;18.00;84.70;;;;;;5059842;28;20748;-72
2023/08/09 06:32:26;;;;;;;3.40;0.83;;;18.60;79.20;;;;;;5067489;28;20344;-71
2023/08/09 06:34:52;;;;;;;2.80;0.87;;;19.10;77.10;;;;;;5043733;28;20139;-71
2023/08/09 06:37:18;;;;;;;2.83;0.80;;;19.60;74.70;;;;;;5063074;28;20891;-71
2023/08/09 06:39:44;;;;;;;3.13;0.60;;;19.80;72.50;;;;;;5051902;28;20055;-71
2023/08/09 06:42:13;;;;;;;6.90;1.17;;;19.90;71.30;;;;;;5055453;28;20122;-71
2023/08/09 06:44:39;;;;;;;2.93;0.80;;;20.10;70.00;;;;;;5059535;28;20077;-71
2023/08/09 06:47:06;;;;;;;3.37;0.77;;;20.30;71.10;;;;;;5040655;28;20802;-71
2023/08/09 06:49:32;;;;;;;7.27;0.90;;;20.50;69.90;;;;;;5056309;28;20300;-71
2023/08/09 06:52:00;;;;;;;3.83;0.87;;;20.60;68.40;;;;;;5058896;28;20302;-71
2023/08/09 06:54:27;;;;;;;2.37;0.60;;;20.80;68.80;;;;;;5042119;28;20075;-71
2023/08/09 06:56:53;;;;;;;2.57;0.73;;;20.80;68.00;;;;;;5044364;28;20294;-71
2023/08/09 06:59:19;;;;;;;1.97;0.53;;;20.80;66.40;;;;;;5062422;28;20279;-71
2023/08/09 07:01:48;;;;;;;3.00;0.80;;;20.70;67.50;;;;;;5056424;28;20322;-71
2023/08/09 07:04:18;;;;;;;2.40;0.60;;;20.50;66.70;;;;;;5041108;28;20119;-71
2023/08/09 07:06:44;;;;;;;3.57;0.50;;;19.90;69.10;;;;;;5047446;28;20561;-71
2023/08/09 07:09:11;;;;;;;3.30;0.73;;;19.20;69.90;;;;;;5039841;28;20330;-71
2023/08/09 07:11:37;;;;;;;1.67;0.43;;;18.40;71.10;;;;;;5039291;28;20552;-71
2023/08/09 07:14:03;;;;;;;3.47;0.73;;;17.90;73.50;;;;;;5052248;28;20362;-71
2023/08/09 07:16:28;;;;;;;2.20;0.73;;;17.60;75.10;;;;;;5053466;28;20386;-71
2023/08/09 07:18:54;;;;;;;2.37;0.60;;;17.40;76.20;;;;;;5057384;28;20041;-71
2023/08/09 07:21:21;;;;;;;4.20;0.53;;;17.30;75.50;;;;;;5053599;28;20041;-71
2023/08/09 07:23:47;;;;;;;3.50;0.93;;;17.20;76.20;;;;;;5058459;28;20124;-71
2023/08/09 07:26:13;;;;;;;1.93;0.50;;;17.20;76.20;;;;;;5032666;28;20395;-70
2023/08/09 07:28:39;;;;;;;2.03;0.70;;;17.20;77.30;;;;;;5038974;28;20037;-71
2023/08/09 07:31:17;;;;;;;3.83;0.70;;;17.30;78.10;;;;;;5037996;28;20055;-71
2023/08/09 07:33:42;;;;;;;4.07;0.60;;;17.40;78.20;;;;;;5039049;28;20291;-71
2023/08/09 07:36:08;;;;;;;3.70;0.60;;;17.40;78.40;;;;;;5056971;28;20348;-71
2023/08/09 07:38:35;;;;;;;6.03;0.60;;;17.50;74.10;;;;;;5034593;28;20044;-71
2023/08/09 07:41:01;;;;;;;2.20;0.57;;;17.50;73.40;;;;;;5052142;28;20045;-71
2023/08/09 07:43:27;;;;;;;2.73;0.60;;;17.50;74.40;;;;;;5059696;28;20272;-71
2023/08/09 07:45:53;;;;;;;2.77;0.50;;;17.60;72.40;;;;;;5064670;28;20282;-71
2023/08/09 07:48:19;;;;;;;1.57;0.47;;;17.60;71.60;;;;;;5046164;28;20028;-70
2023/08/09 07:50:44;;;;;;;2.33;0.40;;;17.60;72.30;;;;;;5051232;28;20525;-70
2023/08/09 07:53:10;;;;;;;3.30;0.50;;;17.70;72.40;;;;;;5056986;28;20534;-71
2023/08/09 07:55:36;;;;;;;1.90;0.40;;;17.80;71.90;;;;;;5051930;28;20060;-71
2023/08/09 07:58:01;;;;;;;4.13;0.53;;;18.00;70.40;;;;;;5040858;28;20094;-70
2023/08/09 08:00:27;;;;;;;2.50;0.50;;;18.20;71.30;;;;;;5048972;28;20440;-70
2023/08/09 08:02:53;;;;;;;2.40;0.50;;;18.40;69.70;;;;;;5039131;28;20047;-71
2023/08/09 08:05:19;;;;;;;3.87;0.80;;;18.60;69.60;;;;;;5059986;28;20029;-71
2023/08/09 08:07:45;;;;;;;2.47;0.47;;;18.70;69.50;;;;;;5055229;28;20290;-70
2023/08/09 08:10:15;;;;;;;1.87;0.50;;;18.80;68.00;;;;;;5052137;28;20044;-70
2023/08/09 08:12:43;;;;;;;1.13;0.40;;;18.80;68.40;;;;;;5055040;28;20036;-70
2023/08/09 08:15:09;;;;;;;1.13;0.30;;;18.80;67.30;;;;;;5053375;28;20592;-70
2023/08/09 08:17:35;;;;;;;2.87;0.90;;;18.90;66.70;;;;;;5055577;28;20347;-70
2023/08/09 08:20:05;;;;;;;1.67;0.40;;;19.00;64.80;;;;;;5049549;28;20041;-70
2023/08/09 08:22:30;;;;;;;2.10;0.70;;;19.10;65.30;;;;;;5040243;28;20047;-70
2023/08/09 08:24:56;;;;;;;4.57;0.50;;;19.20;65.70;;;;;;5050870;28;20037;-70
2023/08/09 08:27:22;;;;;;;3.33;0.50;;;19.30;65.30;;;;;;5048115;28;20052;-70
2023/08/09 08:29:47;;;;;;;2.83;0.77;;;19.50;64.80;;;;;;5052772;28;20449;-70
2023/08/09 08:32:13;;;;;;;2.50;0.30;;;19.50;62.70;;;;;;5060780;28;20118;-71
2023/08/09 08:34:39;;;;;;;2.63;0.40;;;19.50;62.50;;;;;;5034076;28;20080;-70
2023/08/09 08:37:06;;;;;;;2.47;0.63;;;19.40;63.40;;;;;;5054342;28;20076;-70
2023/08/09 08:39:35;;;;;;;3.10;0.50;;;19.30;62.00;;;;;;5036295;28;20041;-70
2023/08/09 08:42:02;;;;;;;1.43;0.47;;;19.30;63.20;;;;;;5054053;28;20040;-71
2023/08/09 08:44:27;;;;;;;1.57;0.40;;;19.40;62.30;;;;;;5036374;28;20040;-70
2023/08/09 08:46:53;;;;;;;2.33;0.30;;;19.40;62.50;;;;;;5065417;28;20032;-71
2023/08/09 08:49:24;;;;;;;2.77;0.40;;;19.40;61.80;;;;;;5041572;28;20238;-71
2023/08/09 08:51:55;;;;;;;2.07;0.40;;;19.40;62.20;;;;;;5036117;28;20044;-70
2023/08/09 08:54:22;;;;;;;2.93;0.40;;;19.30;61.50;;;;;;5038424;28;20503;-70
2023/08/09 08:56:48;;;;;;;4.40;0.40;;;19.20;62.60;;;;;;5051152;28;20052;-70
2023/08/09 08:59:16;;;;;;;2.23;0.63;;;19.20;63.30;;;;;;5055755;28;20422;-71
2023/08/09 09:01:45;;;;;;;1.23;0.37;;;19.20;63.20;;;;;;5052312;28;20472;-70
2023/08/09 09:04:11;;;;;;;1.13;0.50;;;19.30;64.00;;;;;;5037787;28;20045;-71
2023/08/09 09:06:37;;;;;;;2.03;0.47;;;19.50;61.80;;;;;;5054076;28;20037;-71
2023/08/09 09:09:15;;;;;;;2.70;0.40;;;19.60;62.80;;;;;;5049338;28;20041;-71
2023/08/09 09:11:43;;;;;;;2.00;0.30;;;19.80;59.40;;;;;;5059646;28;20052;-71
2023/08/09 09:14:11;;;;;;;1.57;0.30;;;19.80;60.50;;;;;;5043321;28;20040;-71
2023/08/09 09:16:37;;;;;;;2.33;0.43;;;19.70;60.00;;;;;;5059546;28;20091;-71
2023/08/09 09:19:04;;;;;;;3.67;0.50;;;19.80;61.10;;;;;;5034977;28;20133;-70
2023/08/09 09:21:34;;;;;;;3.20;0.70;;;19.90;62.10;;;;;;5055271;28;20051;-71
2023/08/09 09:24:05;;;;;;;2.60;0.60;;;20.00;60.40;;;;;;5050394;28;20116;-70
2023/08/09 09:26:31;;;;;;;1.77;0.43;;;20.00;60.00;;;;;;5028392;28;20033;-71
2023/08/09 09:28:57;;;;;;;2.77;0.70;;;20.00;60.40;;;;;;5048706;28;20110;-70
2023/08/09 09:31:34;;;;;;;1.83;0.40;;;20.10;61.30;;;;;;5039211;28;20128;-70
2023/08/09 09:34:00;;;;;;;2.80;0.50;;;20.10;61.10;;;;;;5040908;28;20539;-70
2023/08/09 09:36:25;;;;;;;3.57;0.80;;;20.10;59.50;;;;;;5035528;28;20044;-70
2023/08/09 09:38:55;;;;;;;3.50;0.60;;;20.30;59.60;;;;;;5053744;28;20472;-71
2023/08/09 09:41:22;;;;;;;4.03;0.50;;;20.30;59.00;;;;;;5050377;28;20033;-71
2023/08/09 09:43:50;;;;;;;1.57;0.40;;;20.30;59.10;;;;;;5048125;28;20405;-70
2023/08/09 09:46:24;;;;;;;1.50;0.50;;;20.40;59.30;;;;;;5059742;28;20037;-70
2023/08/09 09:49:02;;;;;;;2.63;0.50;;;20.50;60.00;;;;;;5047021;28;20041;-70
2023/08/09 09:51:28;;;;;;;2.47;0.43;;;20.70;59.60;;;;;;5059106;28;20033;-70
2023/08/09 09:53:54;;;;;;;4.30;0.80;;;20.90;59.70;;;;;;5033400;28;20428;-70
2023/08/09 09:56:19;;;;;;;2.60;0.43;;;21.00;59.20;;;;;;5054867;28;20321;-71
2023/08/09 09:58:46;;;;;;;1.73;0.60;;;21.00;59.20;;;;;;5046974;28;20037;-70
2023/08/09 10:01:19;;;;;;;3.07;0.40;;;20.90;57.90;;;;;;5047541;28;20045;-70
2023/08/09 10:03:45;;;;;;;2.83;0.50;;;20.80;58.70;;;;;;5053521;28;20041;-70
2023/08/09 10:06:22;;;;;;;3.90;0.60;;;20.80;59.40;;;;;;5054150;28;20477;-70
2023/08/09 10:08:52;;;;;;;3.17;0.63;;;20.90;58.80;;;;;;5062378;28;20082;-70
2023/08/09 10:11:21;;;;;;;2.97;0.70;;;20.90;57.30;;;;;;5056452;28;20079;-71
2023/08/09 10:13:49;;;;;;;2.50;0.40;;;21.00;57.20;;;;;;5057542;28;20094;-71
2023/08/09 10:16:17;;;;;;;1.10;0.30;;;20.80;56.10;;;;;;5060097;28;20045;-71
2023/08/09 10:18:47;;;;;;;1.83;0.40;;;20.80;58.20;;;;;;5055090;28;20076;-71
2023/08/09 10:21:16;;;;;;;1.53;0.50;;;20.90;57.10;;;;;;5053326;28;20041;-71
2023/08/09 10:24:05;;;;;;;1.67;0.50;;;20.90;55.50;;;;;;5048590;28;20049;-71
2023/08/09 10:26:31;;;;;;;1.53;0.40;;;21.00;54.40;;;;;;5050582;28;20044;-71
2023/08/09 10:29:01;;;;;;;2.30;0.57;;;20.90;53.50;;;;;;5036364;28;20782;-71
2023/08/09 10:31:48;;;;;;;2.10;0.50;;;20.80;55.20;;;;;;5036567;28;20053;-71
2023/08/09 10:34:18;;;;;;;2.23;0.40;;;20.80;55.10;;;;;;5054671;28;20068;-71
2023/08/09 10:36:49;;;;;;;1.90;0.50;;;20.90;56.30;;;;;;5035706;28;20515;-72
2023/08/09 10:39:19;;;;;;;5.10;0.60;;;20.90;55.70;;;;;;5068300;28;20116;-73
2023/08/09 10:42:00;;;;;;;1.23;0.50;;;20.80;56.00;;;;;;5055979;28;20517;-71
2023/08/09 10:44:33;;;;;;;2.27;0.60;;;20.80;58.10;;;;;;5065140;28;20382;-72
2023/08/09 10:47:15;;;;;;;2.27;0.60;;;20.90;58.10;;;;;;5054647;28;20033;-72
2023/08/09 10:49:53;;;;;;;1.30;0.60;;;21.10;57.70;;;;;;5060690;28;20040;-72
2023/08/09 10:52:31;;;;;;;1.57;0.50;;;21.20;58.30;;;;;;5053783;28;20465;-72
2023/08/09 10:55:18;;;;;;;3.70;0.70;;;21.30;58.00;;;;;;5056493;28;20121;-72
2023/08/09 10:57:44;;;;;;;3.60;0.70;;;21.20;58.00;;;;;;5058530;28;20123;-72
2023/08/09 11:00:14;;;;;;;1.90;0.70;;;21.30;56.40;;;;;;5055266;28;20055;-71
2023/08/09 11:02:54;;;;;;;1.50;0.50;;;21.40;56.80;;;;;;5057406;28;20048;-72
2023/08/09 11:05:22;;;;;;;2.80;0.50;;;21.40;55.30;;;;;;5054407;28;20045;-73
2023/08/09 11:07:50;;;;;;;2.17;0.53;;;21.30;55.40;;;;;;5042429;28;20044;-73
2023/08/09 11:10:28;;;;;;;2.83;0.53;;;21.20;55.60;;;;;;5057967;28;20047;-73
2023/08/09 11:12:54;;;;;;;3.90;1.13;;;21.00;57.00;;;;;;5060208;28;20122;-73
2023/08/09 11:15:21;;;;;;;1.87;0.70;;;20.80;57.70;;;;;;5058441;28;20044;-72
2023/08/09 11:17:48;;;;;;;4.17;0.60;;;20.60;59.10;;;;;;5057867;28;20039;-72
2023/08/09 11:20:15;;;;;;;2.17;1.00;;;20.40;60.00;;;;;;5058616;28;20045;-72
2023/08/09 11:22:58;;;;;;;5.00;1.17;;;20.30;61.60;;;;;;5060756;28;20033;-73
2023/08/09 11:25:26;;;;;;;1.83;0.80;;;20.20;62.40;;;;;;5041988;28;20045;-75
2023/08/09 11:27:56;;;;;;;3.30;0.93;;;20.30;62.60;;;;;;5057663;28;20520;-72
2023/08/09 11:30:22;;;;;;;4.67;0.90;;;20.50;64.20;;;;;;5055805;28;20048;-74
2023/08/09 11:33:05;;;;;;;5.60;1.03;;;20.80;62.60;;;;;;5059679;28;20056;-72
2023/08/09 11:35:49;;;;;;;5.10;0.97;;;20.80;62.80;;;;;;5060435;28;20062;-72
2023/08/09 11:38:16;;;;;;;3.80;0.93;;;20.70;64.80;;;;;;5060630;28;20182;-72
2023/08/09 11:40:51;;;;;;;2.03;0.80;;;20.90;63.80;;;;;;5058734;28;20044;-72
2023/08/09 11:43:18;;;;;;;3.57;0.70;;;21.00;61.30;;;;;;5044652;28;20583;-73
2023/08/09 11:45:50;;;;;;;3.83;0.90;;;20.90;61.70;;;;;;5059982;28;20044;-73
2023/08/09 11:48:26;;;;;;;2.33;0.80;;;20.90;61.60;;;;;;5061013;28;20052;-73
2023/08/09 11:51:20;;;;;;;2.67;0.73;;;20.80;62.00;;;;;;5056250;28;20036;-72
2023/08/09 11:53:50;;;;;;;5.63;1.00;;;20.60;61.30;;;;;;5059987;28;20041;-72
2023/08/09 11:56:21;;;;;;;3.77;0.67;;;20.70;61.00;;;;;;5063982;28;20040;-71
2023/08/09 11:58:49;;;;;;;4.27;0.70;;;20.60;59.90;;;;;;5060317;28;20064;-72
2023/08/09 12:01:21;;;;;;;4.07;0.97;;;20.60;59.70;;;;;;5063432;28;20066;-72
2023/08/09 12:03:50;;;;;;;3.67;0.97;;;20.80;60.80;;;;;;5058055;28;20159;-72
2023/08/09 12:06:18;;;;;;;4.63;0.70;;;21.00;60.30;;;;;;5057408;28;20048;-72
2023/08/09 12:08:44;;;;;;;2.57;0.87;;;21.00;59.30;;;;;;5064099;28;20119;-73
2023/08/09 12:11:15;;;;;;;5.10;1.30;;;20.80;58.60;;;;;;5062742;28;20397;-72
2023/08/09 12:13:41;;;;;;;4.70;0.70;;;20.40;58.80;;;;;;5062898;28;20048;-70
2023/08/09 12:16:07;;;;;;;2.77;0.80;;;20.30;59.40;;;;;;5060502;28;20036;-71
2023/08/09 12:18:35;;;;;;;3.00;0.60;;;20.30;55.50;;;;;;5053071;28;20053;-71
2023/08/09 12:21:02;;;;;;;2.97;0.90;;;20.50;55.90;;;;;;5042117;28;20032;-71
2023/08/09 12:23:28;;;;;;;3.93;0.50;;;20.50;54.70;;;;;;5058855;28;20039;-72
2023/08/09 12:25:54;;;;;;;2.30;0.67;;;20.50;55.10;;;;;;5062417;28;20116;-72
2023/08/09 12:28:19;;;;;;;3.00;0.57;;;20.60;56.90;;;;;;5059332;28;20481;-72
2023/08/09 12:30:45;;;;;;;3.30;0.70;;;20.80;56.90;;;;;;5052744;28;20054;-72
2023/08/09 12:33:11;;;;;;;5.00;0.90;;;21.00;57.80;;;;;;5047729;28;20057;-71
2023/08/09 12:35:36;;;;;;;5.70;0.77;;;21.20;57.10;;;;;;5056505;28;20485;-72
2023/08/09 12:38:02;;;;;;;6.43;1.17;;;21.60;57.10;;;;;;5060184;28;20049;-72
2023/08/09 12:40:29;;;;;;;6.60;0.87;;;21.80;57.40;;;;;;5054323;28;20079;-72
2023/08/09 12:42:54;;;;;;;4.93;0.90;;;21.90;53.60;;;;;;5061605;28;20044;-72
2023/08/09 12:45:20;;;;;;;3.10;1.00;;;21.70;55.50;;;;;;5052987;28;20627;-72
2023/08/09 12:47:46;;;;;;;6.60;1.13;;;21.40;57.10;;;;;;5058043;28;20040;-73
2023/08/09 12:50:12;;;;;;;4.63;0.93;;;21.10;58.50;;;;;;5055857;28;20485;-72
2023/08/09 12:52:37;;;;;;;6.77;0.90;;;20.90;59.10;;;;;;5053229;28;20049;-72